Time;durP1;ratioP1;P1;durP2;ratioP2;P2;SDS_P1;SDS_P2;PMS_P1;PMS_P2;Temp;Humidity;BMP_temperature;BMP_pressure;BME280_temperature;BME280_humidity;BME280_pressure;Samples;Min_cycle;Max_cycle;Signal;HPM_P1;HPM_P2
2022/05/30 00:00:23;;;;;;;;;;;22.10;90.90;;;;;;4861621;29;19932;-63
2022/05/30 00:02:51;;;;;;;;;;;22.10;91.00;;;;;;4847357;29;20413;-62
2022/05/30 00:05:19;;;;;;;;;;;22.10;91.00;;;;;;4846293;29;19936;-62
2022/05/30 00:07:46;;;;;;;;;;;22.10;90.90;;;;;;4839366;29;19932;-62
2022/05/30 00:10:14;;;;;;;;;;;22.10;90.90;;;;;;4853031;29;19932;-63
2022/05/30 00:12:41;;;;;;;;;;;22.10;90.90;;;;;;4863407;29;19939;-61
2022/05/30 00:15:10;;;;;;;;;;;22.10;90.90;;;;;;4859479;29;19931;-61
2022/05/30 00:17:37;;;;;;;;;;;22.10;90.90;;;;;;4873533;29;19952;-61
2022/05/30 00:20:05;;;;;;;;;;;22.10;90.90;;;;;;4874540;29;20303;-62
2022/05/30 00:22:32;;;;;;;;;;;22.10;91.00;;;;;;4862845;29;20303;-58
2022/05/30 00:24:59;;;;;;;;;;;22.10;90.90;;;;;;4870282;29;19932;-63
2022/05/30 00:27:27;;;;;;;;;;;22.00;90.90;;;;;;4851646;29;20453;-63
2022/05/30 00:29:54;;;;;;;;;;;22.10;90.90;;;;;;4856688;29;20364;-61
2022/05/30 00:32:21;;;;;;;;;;;22.10;90.90;;;;;;4872187;29;19932;-62
2022/05/30 00:34:48;;;;;;;;;;;22.10;90.90;;;;;;4840678;29;20314;-61
2022/05/30 00:37:15;;;;;;;;;;;22.00;90.90;;;;;;4867600;29;19935;-63
2022/05/30 00:39:42;;;;;;;;;;;22.00;90.90;;;;;;4844293;29;19955;-61
2022/05/30 00:42:10;;;;;;;;;;;22.00;90.90;;;;;;4857539;29;20038;-61
2022/05/30 00:44:38;;;;;;;;;;;22.00;90.90;;;;;;4859960;29;20304;-62
2022/05/30 00:47:05;;;;;;;;;;;22.00;91.00;;;;;;4872580;29;20355;-62
2022/05/30 00:49:33;;;;;;;;;;;22.00;90.90;;;;;;4867474;29;19944;-61
2022/05/30 00:52:05;;;;;;;;;;;22.00;90.90;;;;;;4859950;29;19935;-61
2022/05/30 00:54:35;;;;;;;;;;;22.00;91.00;;;;;;4847783;29;20415;-61
2022/05/30 00:57:20;;;;;;;;;;;22.00;90.90;;;;;;4841601;29;20293;-62
2022/05/30 00:59:50;;;;;;;;;;;22.00;91.00;;;;;;4861581;29;19939;-62
2022/05/30 01:02:18;;;;;;;;;;;22.00;91.00;;;;;;4883812;29;19936;-60
2022/05/30 01:07:33;;;;;;;;;;;22.00;90.90;;;;;;4862123;29;19945;-61
2022/05/30 01:10:01;;;;;;;;;;;22.10;90.90;;;;;;4859524;29;19935;-59
2022/05/30 01:12:41;;;;;;;;;;;22.00;90.90;;;;;;4862615;29;19932;-57
2022/05/30 01:15:11;;;;;;;;;;;22.00;90.90;;;;;;4863319;29;19931;-62
2022/05/30 01:17:44;;;;;;;;;;;22.00;90.90;;;;;;4859466;29;19939;-62
2022/05/30 01:20:16;;;;;;;;;;;22.00;91.00;;;;;;4856261;29;19939;-61
2022/05/30 01:22:53;;;;;;;;;;;22.00;91.10;;;;;;4841512;29;19932;-62
2022/05/30 01:25:31;;;;;;;;;;;21.90;91.10;;;;;;4840859;29;20281;-63
2022/05/30 01:28:32;;;;;;;;;;;21.90;91.10;;;;;;4873572;29;19936;-62
2022/05/30 01:30:59;;;;;;;;;;;21.90;91.10;;;;;;4870754;29;20014;-63
2022/05/30 01:33:27;;;;;;;;;;;21.90;91.20;;;;;;4860631;29;19932;-63
2022/05/30 01:35:54;;;;;;;;;;;21.90;91.20;;;;;;4846947;29;19933;-62
2022/05/30 01:38:23;;;;;;;;;;;21.90;91.20;;;;;;4855467;29;20504;-63
2022/05/30 01:40:55;;;;;;;;;;;21.90;91.20;;;;;;4855169;29;20314;-62
2022/05/30 01:43:23;;;;;;;;;;;21.90;91.20;;;;;;4855634;29;19936;-62
2022/05/30 01:46:02;;;;;;;;;;;21.90;91.20;;;;;;4858266;29;19928;-63
2022/05/30 01:48:30;;;;;;;;;;;21.80;91.20;;;;;;4836680;29;19928;-63
2022/05/30 01:50:59;;;;;;;;;;;21.80;91.40;;;;;;4860509;29;20426;-63
2022/05/30 01:53:29;;;;;;;;;;;21.80;91.40;;;;;;4863026;29;20328;-64
2022/05/30 01:56:15;;;;;;;;;;;21.80;91.40;;;;;;4854321;29;19939;-63
2022/05/30 01:58:43;;;;;;;;;;;21.80;91.50;;;;;;4824248;29;19935;-61
2022/05/30 02:01:32;;;;;;;;;;;21.80;91.50;;;;;;4862800;29;19939;-62
2022/05/30 02:04:02;;;;;;;;;;;21.80;91.60;;;;;;4838952;29;20396;-60
2022/05/30 02:06:31;;;;;;;;;;;21.80;91.60;;;;;;4824781;29;19940;-61
2022/05/30 02:08:58;;;;;;;;;;;21.90;91.60;;;;;;4853289;29;19932;-62
2022/05/30 02:11:27;;;;;;;;;;;21.80;91.50;;;;;;4860990;29;19936;-62
2022/05/30 02:14:12;;;;;;;;;;;21.80;91.50;;;;;;4854103;29;20405;-61
2022/05/30 02:19:27;;;;;;;;;;;21.80;91.50;;;;;;4865008;29;19939;-61
2022/05/30 02:21:54;;;;;;;;;;;21.80;91.60;;;;;;4866179;29;19939;-62
2022/05/30 02:24:22;;;;;;;;;;;21.80;91.80;;;;;;4856427;29;19935;-60
2022/05/30 02:26:49;;;;;;;;;;;21.80;91.60;;;;;;4839849;29;20622;-62
2022/05/30 02:29:18;;;;;;;;;;;21.80;91.50;;;;;;4839705;29;19932;-62
2022/05/30 02:31:56;;;;;;;;;;;21.80;91.60;;;;;;4865387;29;19931;-61
2022/05/30 02:37:10;;;;;;;;;;;21.70;91.60;;;;;;4853553;29;19929;-61
2022/05/30 02:39:39;;;;;;;;;;;21.70;91.60;;;;;;4842207;29;19932;-61
2022/05/30 02:42:25;;;;;;;;;;;21.70;91.60;;;;;;4872340;29;20381;-62
2022/05/30 02:44:53;;;;;;;;;;;21.70;91.60;;;;;;4864015;29;19936;-64
2022/05/30 02:47:21;;;;;;;;;;;21.70;91.60;;;;;;4857891;29;19932;-60
2022/05/30 02:49:57;;;;;;;;;;;21.70;91.60;;;;;;4855639;29;19936;-64
2022/05/30 02:52:25;;;;;;;;;;;21.70;91.50;;;;;;4867854;29;19931;-60
2022/05/30 02:54:53;;;;;;;;;;;21.80;91.60;;;;;;4854323;29;20699;-61
2022/05/30 02:57:31;;;;;;;;;;;21.70;91.50;;;;;;4867412;29;19953;-62
2022/05/30 03:00:00;;;;;;;;;;;21.70;91.60;;;;;;4858677;29;20038;-61
2022/05/30 03:02:29;;;;;;;;;;;21.70;91.70;;;;;;4854172;29;19942;-64
2022/05/30 03:04:58;;;;;;;;;;;21.70;91.70;;;;;;4841553;29;19932;-62
2022/05/30 03:07:25;;;;;;;;;;;21.70;91.60;;;;;;4842543;29;19939;-62
2022/05/30 03:09:53;;;;;;;;;;;21.70;91.60;;;;;;4841678;29;20483;-61
2022/05/30 03:12:28;;;;;;;;;;;21.60;91.60;;;;;;4859083;29;19927;-64
2022/05/30 03:14:55;;;;;;;;;;;21.60;91.60;;;;;;4826149;29;19939;-62
2022/05/30 03:17:23;;;;;;;;;;;21.70;91.60;;;;;;4840484;29;19935;-62
2022/05/30 03:19:53;;;;;;;;;;;21.70;91.50;;;;;;4854380;29;19939;-61
2022/05/30 03:22:21;;;;;;;;;;;21.60;91.50;;;;;;4845446;29;20281;-62
2022/05/30 03:25:09;;;;;;;;;;;21.60;91.50;;;;;;4859821;29;19931;-63
2022/05/30 03:27:36;;;;;;;;;;;21.60;91.60;;;;;;4857153;29;19939;-63
2022/05/30 03:30:03;;;;;;;;;;;21.60;91.50;;;;;;4842443;29;19932;-62
2022/05/30 03:32:31;;;;;;;;;;;21.60;91.60;;;;;;4856079;29;20286;-61
2022/05/30 03:34:59;;;;;;;;;;;21.60;91.60;;;;;;4840515;29;19932;-64
2022/05/30 03:37:30;;;;;;;;;;;21.60;91.60;;;;;;4869411;29;19932;-62
2022/05/30 03:40:17;;;;;;;;;;;21.60;91.60;;;;;;4847865;29;19932;-62
2022/05/30 03:43:07;;;;;;;;;;;21.60;91.60;;;;;;4872433;29;19936;-61
2022/05/30 03:45:39;;;;;;;;;;;21.60;91.60;;;;;;4846950;29;19947;-61
2022/05/30 03:48:08;;;;;;;;;;;21.60;91.70;;;;;;4825690;29;19943;-61
2022/05/30 03:50:36;;;;;;;;;;;21.50;91.70;;;;;;4864474;29;20434;-61
2022/05/30 03:53:06;;;;;;;;;;;21.60;91.70;;;;;;4863345;29;19936;-62
2022/05/30 03:55:36;;;;;;;;;;;21.60;91.70;;;;;;4863785;29;19935;-63
2022/05/30 03:58:04;;;;;;;;;;;21.60;91.70;;;;;;4846740;29;19932;-62
2022/05/30 04:00:34;;;;;;;;;;;21.60;91.70;;;;;;4847292;29;20323;-62
2022/05/30 04:03:02;;;;;;;;;;;21.50;91.70;;;;;;4854646;29;19935;-62
2022/05/30 04:05:30;;;;;;;;;;;21.50;91.80;;;;;;4842771;29;19939;-63
2022/05/30 04:07:58;;;;;;;;;;;21.50;91.80;;;;;;4854552;29;19935;-62
2022/05/30 04:10:57;;;;;;;;;;;21.60;92.10;;;;;;4830432;29;20384;-62
2022/05/30 04:13:33;;;;;;;;;;;21.60;91.80;;;;;;4868221;29;19932;-62
2022/05/30 04:16:39;;;;;;;;;;;21.60;91.60;;;;;;4863246;29;19931;-63
2022/05/30 04:19:11;;;;;;;;;;;21.50;91.50;;;;;;4863146;29;19932;-63
2022/05/30 04:21:39;;;;;;;;;;;21.50;91.60;;;;;;4836215;29;20388;-61
2022/05/30 04:24:07;;;;;;;;;;;21.50;91.50;;;;;;4829295;29;19941;-62
2022/05/30 04:26:44;;;;;;;;;;;21.50;91.50;;;;;;4841661;29;20172;-63
2022/05/30 04:29:12;;;;;;;;;;;21.50;91.60;;;;;;4862796;29;19935;-63
2022/05/30 04:31:42;;;;;;;;;;;21.30;87.40;;;;;;4872536;29;19928;-64
2022/05/30 04:34:12;;;;;;;;;;;20.70;82.90;;;;;;4842375;29;19943;-62
2022/05/30 04:36:39;;;;;;;;;;;20.60;88.60;;;;;;4855365;29;19938;-61
2022/05/30 04:39:06;;;;;;;;;;;20.70;88.60;;;;;;4851514;29;19932;-62
2022/05/30 04:41:34;;;;;;;;;;;20.90;87.80;;;;;;4874884;29;19939;-61
2022/05/30 04:44:27;;;;;;;;;;;21.10;87.50;;;;;;4846412;29;20287;-63
2022/05/30 04:47:03;;;;;;;;;;;21.20;87.60;;;;;;4864950;29;19931;-62
2022/05/30 04:49:31;;;;;;;;;;;21.30;87.60;;;;;;4856076;29;19928;-61
2022/05/30 04:51:58;;;;;;;;;;;21.30;87.50;;;;;;4876012;29;19932;-64
2022/05/30 04:54:26;;;;;;;;;;;21.40;88.00;;;;;;4871244;29;19950;-64
2022/05/30 04:57:11;;;;;;;;;;;21.50;88.20;;;;;;4836099;29;20427;-62
2022/05/30 04:59:53;;;;;;;;;;;21.60;88.70;;;;;;4843883;29;19932;-65
2022/05/30 05:02:20;;;;;;;;;;;21.70;88.80;;;;;;4854914;29;20348;-67
2022/05/30 05:04:48;;;;;;;;;;;21.70;89.70;;;;;;4839266;29;20342;-62
2022/05/30 05:07:16;;;;;;;;;;;21.70;90.00;;;;;;4869404;29;19934;-65
2022/05/30 05:10:02;;;;;;;;;;;21.70;90.20;;;;;;4857026;29;19935;-66
2022/05/30 05:13:05;;;;;;;;;;;21.60;90.40;;;;;;4803978;29;19933;-64
2022/05/30 05:15:57;;;;;;;;;;;21.70;90.50;;;;;;4869405;29;20388;-65
2022/05/30 05:18:31;;;;;;;;;;;21.70;90.60;;;;;;4843592;29;19932;-67
2022/05/30 05:20:58;;;;;;;;;;;21.70;90.70;;;;;;4841113;29;19939;-66
2022/05/30 05:23:26;;;;;;;;;;;21.70;90.70;;;;;;4864152;29;20486;-66
2022/05/30 05:26:07;;;;;;;;;;;21.70;90.80;;;;;;4860685;29;20675;-66
2022/05/30 05:28:55;;;;;;;;;;;21.70;90.90;;;;;;4865752;29;19943;-66
2022/05/30 05:31:27;;;;;;;;;;;21.70;90.80;;;;;;4846343;29;20367;-66
2022/05/30 05:33:57;;;;;;;;;;;21.60;90.80;;;;;;4863365;29;19935;-66
2022/05/30 05:36:30;;;;;;;;;;;21.60;90.90;;;;;;4831414;29;19936;-65
2022/05/30 05:38:58;;;;;;;;;;;21.60;91.00;;;;;;4845817;29;20272;-64
2022/05/30 05:41:57;;;;;;;;;;;21.60;91.00;;;;;;4840092;29;19928;-63
2022/05/30 05:44:25;;;;;;;;;;;21.60;90.90;;;;;;4862430;29;20426;-64
2022/05/30 05:46:55;;;;;;;;;;;21.60;91.00;;;;;;4837454;29;19932;-65
2022/05/30 05:49:24;;;;;;;;;;;21.60;91.00;;;;;;4859578;29;20392;-64
2022/05/30 05:51:53;;;;;;;;;;;21.70;91.00;;;;;;4855448;29;19939;-63
2022/05/30 05:54:23;;;;;;;;;;;21.70;91.00;;;;;;4826286;29;20297;-64
2022/05/30 05:56:52;;;;;;;;;;;21.70;91.10;;;;;;4854666;29;19932;-64
2022/05/30 05:59:28;;;;;;;;;;;21.70;91.00;;;;;;4857650;29;19951;-63
2022/05/30 06:01:56;;;;;;;;;;;21.70;91.00;;;;;;4857681;29;19951;-61
2022/05/30 06:04:24;;;;;;;;;;;21.70;91.00;;;;;;4852141;29;20074;-65
2022/05/30 06:07:04;;;;;;;;;;;21.70;91.10;;;;;;4866775;29;19932;-65
2022/05/30 06:09:45;;;;;;;;;;;21.70;91.10;;;;;;4858315;29;19931;-66
2022/05/30 06:12:19;;;;;;;;;;;21.70;91.10;;;;;;4839257;29;19932;-69
2022/05/30 06:14:47;;;;;;;;;;;21.80;91.10;;;;;;4851847;29;19932;-67
2022/05/30 06:17:15;;;;;;;;;;;21.80;91.10;;;;;;4856742;29;19936;-67
2022/05/30 06:19:42;;;;;;;;;;;21.70;91.10;;;;;;4863356;29;19938;-67
2022/05/30 06:22:09;;;;;;;;;;;21.80;91.20;;;;;;4861778;29;19932;-67
2022/05/30 06:24:38;;;;;;;;;;;21.80;91.20;;;;;;4852704;29;20741;-65
2022/05/30 06:27:28;;;;;;;;;;;21.80;91.20;;;;;;4861277;29;20039;-63
2022/05/30 06:30:20;;;;;;;;;;;21.80;91.20;;;;;;4864448;29;19939;-64
2022/05/30 06:32:49;;;;;;;;;;;21.70;91.30;;;;;;4853321;29;19939;-64
2022/05/30 06:35:32;;;;;;;;;;;21.80;91.30;;;;;;4843981;29;19932;-65
2022/05/30 06:37:59;;;;;;;;;;;21.80;91.30;;;;;;4855196;29;19955;-65
2022/05/30 06:40:27;;;;;;;;;;;21.70;91.40;;;;;;4846252;29;19943;-70
2022/05/30 06:42:59;;;;;;;;;;;21.80;91.70;;;;;;4851953;29;19943;-66
2022/05/30 06:45:30;;;;;;;;;;;21.80;91.70;;;;;;4868512;29;20012;-66
2022/05/30 06:48:16;;;;;;;;;;;21.80;91.60;;;;;;4862798;29;19932;-65
2022/05/30 06:50:46;;;;;;;;;;;21.80;91.70;;;;;;4853584;29;20304;-64
2022/05/30 06:53:14;;;;;;;;;;;21.80;91.70;;;;;;4866645;29;19997;-64
2022/05/30 06:55:41;;;;;;;;;;;21.80;91.80;;;;;;4853093;29;19962;-65
2022/05/30 06:58:14;;;;;;;;;;;21.90;91.90;;;;;;4825451;29;19931;-62
2022/05/30 07:00:44;;;;;;;;;;;21.90;91.90;;;;;;4865347;29;19939;-63
2022/05/30 07:03:30;;;;;;;;;;;21.90;91.80;;;;;;4870362;29;19934;-65
2022/05/30 07:06:18;;;;;;;;;;;21.90;91.90;;;;;;4855320;29;19932;-63
2022/05/30 07:09:11;;;;;;;;;;;21.90;92.00;;;;;;4872721;29;19932;-67
2022/05/30 07:12:09;;;;;;;;;;;21.90;92.20;;;;;;4819645;29;19933;-64
2022/05/30 07:14:38;;;;;;;;;;;21.90;92.40;;;;;;4831816;29;19928;-63
2022/05/30 07:17:06;;;;;;;;;;;21.90;92.60;;;;;;4833700;29;19936;-63
2022/05/30 07:19:34;;;;;;;;;;;21.90;92.60;;;;;;4807624;29;19959;-64
2022/05/30 07:22:05;;;;;;;;;;;21.90;93.00;;;;;;4817340;29;19932;-64
2022/05/30 07:24:54;;;;;;;;;;;21.90;95.50;;;;;;4794624;29;20416;-63
2022/05/30 07:27:42;;;;;;;;;;;22.00;97.20;;;;;;4806437;29;19932;-62
2022/05/30 07:30:28;;;;;;;;;;;22.10;97.60;;;;;;4837157;29;19941;-63
2022/05/30 07:33:13;;;;;;;;;;;22.10;98.40;;;;;;4842889;29;20602;-65
2022/05/30 07:35:59;;;;;;;;;;;22.10;98.90;;;;;;4833997;29;19931;-64
2022/05/30 07:38:56;;;;;;;;;;;22.10;99.00;;;;;;4758720;29;19939;-62
2022/05/30 07:41:44;;;;;;;;;;;22.10;98.90;;;;;;4800604;29;19949;-62
2022/05/30 07:44:32;;;;;;;;;;;22.20;99.00;;;;;;4838036;29;19939;-63
2022/05/30 07:47:22;;;;;;;;;;;22.20;98.60;;;;;;4803574;29;20404;-64
2022/05/30 07:50:22;;;;;;;;;;;22.20;97.80;;;;;;4814789;29;19929;-65
2022/05/30 07:52:55;;;;;;;;;;;22.30;97.60;;;;;;4837841;29;19954;-66
2022/05/30 07:55:42;;;;;;;;;;;22.30;97.40;;;;;;4836086;29;19968;-65
2022/05/30 07:58:11;;;;;;;;;;;22.30;97.40;;;;;;4820417;29;19932;-63
2022/05/30 08:00:43;;;;;;;;;;;22.20;97.20;;;;;;4830478;29;19929;-65
2022/05/30 08:03:16;;;;;;;;;;;22.20;96.00;;;;;;4819565;29;19929;-64
2022/05/30 08:06:06;;;;;;;;;;;22.20;95.90;;;;;;4821337;29;19933;-66
2022/05/30 08:08:52;;;;;;;;;;;22.20;95.80;;;;;;4838365;29;19928;-65
2022/05/30 08:11:21;;;;;;;;;;;22.10;95.60;;;;;;4851346;29;19943;-67
2022/05/30 08:13:53;;;;;;;;;;;22.00;95.20;;;;;;4818350;29;19944;-66
2022/05/30 08:16:22;;;;;;;;;;;21.90;94.40;;;;;;4860052;29;19939;-66
2022/05/30 08:19:09;;;;;;;;;;;21.90;92.90;;;;;;4859088;29;19943;-67
2022/05/30 08:22:01;;;;;;;;;;;21.80;92.80;;;;;;4841480;29;19932;-67
2022/05/30 08:24:28;;;;;;;;;;;21.70;92.10;;;;;;4824812;29;19936;-62
2022/05/30 08:27:02;;;;;;;;;;;21.60;91.50;;;;;;4815393;29;19932;-63
2022/05/30 08:29:43;;;;;;;;;;;21.60;90.50;;;;;;4847913;29;19928;-66
2022/05/30 08:32:11;;;;;;;;;;;21.60;89.50;;;;;;4852088;29;19943;-65
2022/05/30 08:34:58;;;;;;;;;;;21.60;88.60;;;;;;4854026;29;19943;-63
2022/05/30 08:37:30;;;;;;;;;;;21.60;88.20;;;;;;4832855;29;19931;-63
2022/05/30 08:42:45;;;;;;;;;;;21.70;88.00;;;;;;4840627;29;19928;-64
2022/05/30 08:45:16;;;;;;;;;;;21.70;88.10;;;;;;4860406;29;20004;-64
2022/05/30 08:48:02;;;;;;;;;;;21.60;88.30;;;;;;4845549;29;19932;-61
2022/05/30 08:50:39;;;;;;;;;;;21.70;88.40;;;;;;4813373;29;19944;-64
2022/05/30 08:53:12;;;;;;;;;;;21.60;88.40;;;;;;4838812;29;20035;-63
2022/05/30 08:55:41;;;;;;;;;;;21.60;88.50;;;;;;4841866;29;19940;-63
2022/05/30 08:58:16;;;;;;;;;;;21.60;88.70;;;;;;4825733;29;19932;-65
2022/05/30 09:00:51;;;;;;;;;;;21.60;88.90;;;;;;4837013;29;20269;-63
2022/05/30 09:03:35;;;;;;;;;;;21.60;89.10;;;;;;4840022;29;19929;-64
2022/05/30 09:06:09;;;;;;;;;;;21.60;89.20;;;;;;4833976;29;19944;-64
2022/05/30 09:08:45;;;;;;;;;;;21.60;89.40;;;;;;4852183;29;19936;-63
2022/05/30 09:11:34;;;;;;;;;;;21.60;89.50;;;;;;4846036;29;19928;-63
2022/05/30 09:14:10;;;;;;;;;;;21.60;89.70;;;;;;4832127;29;19943;-64
2022/05/30 09:16:44;;;;;;;;;;;21.60;90.00;;;;;;4847623;29;19932;-65
2022/05/30 09:19:17;;;;;;;;;;;21.60;90.10;;;;;;4841319;29;19939;-64
2022/05/30 09:21:45;;;;;;;;;;;21.60;90.20;;;;;;4834575;29;19947;-66
2022/05/30 09:24:14;;;;;;;;;;;21.60;90.50;;;;;;4837094;29;19956;-68
2022/05/30 09:26:42;;;;;;;;;;;21.60;90.50;;;;;;4822062;29;20373;-68
2022/05/30 09:29:21;;;;;;;;;;;21.70;90.70;;;;;;4839565;29;19928;-67
2022/05/30 09:32:32;;;;;;;;;;;21.70;90.80;;;;;;4851530;29;19932;-66
2022/05/30 09:35:30;;;;;;;;;;;21.70;90.90;;;;;;4806467;29;19932;-65
2022/05/30 09:38:20;;;;;;;;;;;21.70;91.10;;;;;;4855437;29;19928;-67
2022/05/30 09:41:21;;;;;;;;;;;21.70;91.20;;;;;;4837105;29;19940;-69
2022/05/30 09:44:06;;;;;;;;;;;21.70;91.30;;;;;;4835950;29;19932;-67
2022/05/30 09:46:39;;;;;;;;;;;21.80;91.40;;;;;;4855876;29;20620;-68
2022/05/30 09:49:27;;;;;;;;;;;21.80;91.40;;;;;;4854104;29;19939;-67
2022/05/30 09:52:04;;;;;;;;;;;21.80;91.40;;;;;;4838079;29;19935;-67
2022/05/30 09:54:34;;;;;;;;;;;21.80;91.40;;;;;;4854219;29;20268;-67
2022/05/30 09:57:22;;;;;;;;;;;21.80;91.40;;;;;;4846251;29;19932;-66
2022/05/30 10:00:08;;;;;;;;;;;21.80;91.50;;;;;;4839800;29;19939;-66
2022/05/30 10:02:44;;;;;;;;;;;21.80;91.50;;;;;;4827925;29;19936;-68
2022/05/30 10:05:30;;;;;;;;;;;21.80;91.50;;;;;;4842007;29;19939;-68
2022/05/30 10:08:05;;;;;;;;;;;21.90;91.60;;;;;;4824014;29;19943;-62
2022/05/30 10:10:59;;;;;;;;;;;21.90;91.90;;;;;;4843206;29;19932;-69
2022/05/30 10:13:34;;;;;;;;;;;21.90;92.50;;;;;;4825946;29;19943;-68
2022/05/30 10:16:32;;;;;;;;;;;22.00;92.10;;;;;;4835079;29;19933;-66
2022/05/30 10:19:04;;;;;;;;;;;22.00;92.00;;;;;;4848245;29;19939;-64
2022/05/30 10:29:03;;;;;;;;;;;22.00;92.00;;;;;;4830198;29;19943;-65
2022/05/30 10:32:09;;;;;;;;;;;22.00;92.10;;;;;;4845898;29;19928;-61
2022/05/30 10:34:36;;;;;;;;;;;22.00;92.10;;;;;;4842295;29;20502;-64
2022/05/30 10:37:25;;;;;;;;;;;22.00;92.20;;;;;;4834212;29;19952;-63
2022/05/30 10:39:54;;;;;;;;;;;22.00;92.20;;;;;;4848531;29;19932;-64
2022/05/30 10:42:33;;;;;;;;;;;22.00;92.30;;;;;;4822430;29;19936;-66
2022/05/30 10:45:08;;;;;;;;;;;22.10;92.40;;;;;;4819387;29;19939;-64
2022/05/30 10:47:40;;;;;;;;;;;22.00;92.50;;;;;;4818725;29;19932;-62
2022/05/30 10:50:15;;;;;;;;;;;22.00;92.60;;;;;;4854657;29;20351;-69
2022/05/30 10:53:03;;;;;;;;;;;22.00;92.50;;;;;;4848082;29;19943;-64
2022/05/30 10:55:52;;;;;;;;;;;22.00;92.50;;;;;;4848435;29;20280;-63
2022/05/30 10:58:29;;;;;;;;;;;22.00;92.50;;;;;;4839546;29;20649;-64
2022/05/30 11:01:00;;;;;;;;;;;22.00;92.60;;;;;;4847133;29;19931;-65
2022/05/30 11:03:43;;;;;;;;;;;22.10;92.60;;;;;;4836654;29;19932;-62
2022/05/30 11:06:18;;;;;;;;;;;22.10;92.60;;;;;;4841245;29;19931;-62
2022/05/30 11:08:55;;;;;;;;;;;22.10;92.60;;;;;;4840090;29;20023;-63
2022/05/30 11:11:22;;;;;;;;;;;22.10;92.60;;;;;;4849485;29;19938;-66
2022/05/30 11:14:24;;;;;;;;;;;22.00;92.60;;;;;;4840614;29;19940;-66
2022/05/30 11:17:30;;;;;;;;;;;22.10;92.60;;;;;;4859603;29;19937;-64
2022/05/30 11:20:23;;;;;;;;;;;22.10;92.60;;;;;;4853969;29;19936;-67
2022/05/30 11:22:54;;;;;;;;;;;22.10;92.50;;;;;;4843303;29;19932;-67
2022/05/30 11:25:22;;;;;;;;;;;22.10;92.50;;;;;;4863596;29;19939;-65
2022/05/30 11:28:11;;;;;;;;;;;22.00;92.50;;;;;;4851122;29;19935;-65
2022/05/30 11:30:44;;;;;;;;;;;22.10;92.70;;;;;;4841331;29;19940;-65
2022/05/30 11:33:11;;;;;;;;;;;22.10;92.50;;;;;;4844929;29;19943;-63
2022/05/30 11:35:45;;;;;;;;;;;22.10;92.70;;;;;;4857985;29;19955;-65
2022/05/30 11:38:31;;;;;;;;;;;22.10;92.30;;;;;;4866862;29;19936;-65
2022/05/30 11:41:04;;;;;;;;;;;22.10;92.30;;;;;;4840687;29;19933;-65
2022/05/30 11:43:57;;;;;;;;;;;22.10;92.30;;;;;;4838758;29;19932;-61
2022/05/30 11:46:25;;;;;;;;;;;22.10;92.30;;;;;;4807043;29;19951;-65
2022/05/30 11:49:02;;;;;;;;;;;22.10;92.30;;;;;;4846872;29;20423;-64
2022/05/30 11:51:44;;;;;;;;;;;22.10;92.20;;;;;;4842050;29;19931;-65
2022/05/30 11:54:17;;;;;;;;;;;22.10;92.20;;;;;;4858659;29;19932;-64
2022/05/30 11:57:17;;;;;;;;;;;22.10;92.20;;;;;;4851425;29;19948;-64
2022/05/30 12:00:07;;;;;;;;;;;22.10;92.10;;;;;;4806000;29;20296;-66
2022/05/30 12:02:46;;;;;;;;;;;22.10;92.10;;;;;;4849002;29;19936;-65
2022/05/30 12:05:22;;;;;;;;;;;22.20;92.20;;;;;;4853567;29;19981;-64
2022/05/30 12:07:58;;;;;;;;;;;22.10;92.10;;;;;;4840270;29;19932;-62
2022/05/30 12:10:46;;;;;;;;;;;22.10;92.20;;;;;;4845545;29;20368;-62
2022/05/30 12:13:18;;;;;;;;;;;22.10;92.20;;;;;;4829145;29;19932;-66
2022/05/30 12:15:46;;;;;;;;;;;22.10;92.30;;;;;;4857842;29;20015;-63
2022/05/30 12:24:05;;;;;;;;;;;22.10;92.20;;;;;;4855543;29;19944;-64
2022/05/30 12:26:54;;;;;;;;;;;22.10;92.20;;;;;;4857023;29;19932;-64
2022/05/30 12:29:40;;;;;;;;;;;22.10;92.30;;;;;;4852335;29;19951;-66
2022/05/30 12:32:16;;;;;;;;;;;22.10;92.20;;;;;;4852725;29;19951;-65
2022/05/30 12:35:05;;;;;;;;;;;22.10;92.40;;;;;;4828418;29;19932;-65
2022/05/30 12:37:45;;;;;;;;;;;22.10;92.50;;;;;;4849820;29;19933;-62
2022/05/30 12:40:24;;;;;;;;;;;22.10;92.50;;;;;;4849553;29;19939;-66
2022/05/30 12:43:07;;;;;;;;;;;22.20;92.50;;;;;;4823839;29;19927;-69
2022/05/30 12:45:40;;;;;;;;;;;22.20;92.40;;;;;;4852095;29;20422;-64
2022/05/30 12:48:17;;;;;;;;;;;22.20;92.20;;;;;;4829214;29;19958;-65
2022/05/30 12:51:04;;;;;;;;;;;22.10;91.70;;;;;;4850875;29;19980;-62
2022/05/30 12:53:51;;;;;;;;;;;22.10;91.80;;;;;;4795808;29;19932;-65
2022/05/30 12:56:44;;;;;;;;;;;22.20;92.00;;;;;;4838158;29;20413;-63
2022/05/30 12:59:11;;;;;;;;;;;22.20;92.00;;;;;;4834857;29;19942;-62
2022/05/30 13:01:43;;;;;;;;;;;22.20;91.90;;;;;;4866313;29;19929;-65
2022/05/30 13:04:26;;;;;;;;;;;22.20;91.90;;;;;;4842941;29;19935;-63
2022/05/30 13:07:01;;;;;;;;;;;22.20;91.80;;;;;;4844942;29;19932;-60
2022/05/30 13:09:40;;;;;;;;;;;22.20;91.90;;;;;;4841096;29;19939;-64
2022/05/30 13:12:10;;;;;;;;;;;22.20;91.90;;;;;;4842238;29;19938;-65
2022/05/30 13:15:04;;;;;;;;;;;22.20;92.00;;;;;;4847088;29;20456;-64
2022/05/30 13:17:47;;;;;;;;;;;22.20;91.90;;;;;;4823005;29;19932;-62
2022/05/30 13:20:23;;;;;;;;;;;22.30;91.90;;;;;;4831041;29;20019;-66
2022/05/30 13:22:52;;;;;;;;;;;22.30;91.90;;;;;;4820581;29;20285;-63
2022/05/30 13:25:21;;;;;;;;;;;22.40;91.80;;;;;;4852147;29;20677;-66
2022/05/30 13:27:48;;;;;;;;;;;22.50;92.00;;;;;;4852914;29;19943;-64
2022/05/30 13:30:19;;;;;;;;;;;22.50;92.10;;;;;;4843969;29;19935;-68
2022/05/30 13:32:48;;;;;;;;;;;22.60;91.80;;;;;;4834710;29;20311;-63
2022/05/30 13:35:16;;;;;;;;;;;22.60;91.80;;;;;;4838563;29;19928;-62
2022/05/30 13:37:49;;;;;;;;;;;22.60;91.80;;;;;;4851510;29;19932;-63
2022/05/30 13:40:18;;;;;;;;;;;22.60;91.70;;;;;;4855631;29;19932;-64
2022/05/30 13:42:48;;;;;;;;;;;22.60;91.70;;;;;;4855188;29;19936;-62
2022/05/30 13:45:22;;;;;;;;;;;22.70;91.70;;;;;;4856929;29;19959;-63
2022/05/30 13:48:03;;;;;;;;;;;22.60;92.00;;;;;;4858810;29;19928;-66
2022/05/30 13:50:58;;;;;;;;;;;22.60;91.90;;;;;;4848877;29;20325;-65
2022/05/30 13:53:38;;;;;;;;;;;22.60;91.90;;;;;;4824132;29;19932;-63
2022/05/30 13:56:10;;;;;;;;;;;22.70;91.90;;;;;;4834751;29;19939;-62
2022/05/30 13:58:47;;;;;;;;;;;22.70;92.00;;;;;;4836057;29;19947;-61
2022/05/30 14:01:18;;;;;;;;;;;22.70;92.10;;;;;;4854253;29;20419;-62
2022/05/30 14:04:02;;;;;;;;;;;22.70;92.10;;;;;;4848230;29;20224;-62
2022/05/30 14:06:34;;;;;;;;;;;22.80;92.10;;;;;;4858750;29;19932;-62
2022/05/30 14:09:03;;;;;;;;;;;22.80;92.10;;;;;;4855702;29;19947;-64
2022/05/30 14:11:35;;;;;;;;;;;22.80;92.20;;;;;;4858899;29;19935;-65
2022/05/30 14:14:04;;;;;;;;;;;22.80;92.10;;;;;;4853074;29;19928;-64
2022/05/30 14:16:36;;;;;;;;;;;22.80;92.00;;;;;;4848708;29;19932;-63
2022/05/30 14:19:06;;;;;;;;;;;22.70;92.10;;;;;;4853865;29;19928;-58
2022/05/30 14:21:35;;;;;;;;;;;22.70;92.10;;;;;;4852027;29;19951;-64
2022/05/30 14:24:14;;;;;;;;;;;22.70;92.00;;;;;;4858240;29;20311;-62
2022/05/30 14:26:41;;;;;;;;;;;22.80;92.00;;;;;;4854072;29;19936;-63
2022/05/30 14:29:21;;;;;;;;;;;22.70;92.00;;;;;;4860344;29;19936;-65
2022/05/30 14:32:00;;;;;;;;;;;22.70;92.00;;;;;;4865585;29;19932;-63
2022/05/30 14:34:40;;;;;;;;;;;22.70;92.10;;;;;;4858591;29;19935;-62
2022/05/30 14:37:15;;;;;;;;;;;22.70;92.20;;;;;;4863371;29;19928;-62
2022/05/30 14:39:48;;;;;;;;;;;22.70;92.20;;;;;;4864855;29;19924;-62
2022/05/30 14:42:20;;;;;;;;;;;22.60;92.20;;;;;;4867363;29;19924;-64
2022/05/30 14:44:52;;;;;;;;;;;22.70;92.30;;;;;;4872038;29;19939;-63
2022/05/30 14:47:41;;;;;;;;;;;22.80;92.20;;;;;;4865302;29;19935;-60
2022/05/30 14:50:19;;;;;;;;;;;22.90;92.10;;;;;;4856530;29;20022;-65
2022/05/30 14:52:49;;;;;;;;;;;23.00;91.80;;;;;;4847105;29;19928;-63
2022/05/30 14:55:32;;;;;;;;;;;23.10;91.70;;;;;;4833263;29;19928;-63
2022/05/30 14:58:10;;;;;;;;;;;23.10;91.60;;;;;;4854723;29;19936;-61
2022/05/30 15:00:41;;;;;;;;;;;23.20;91.50;;;;;;4847124;29;19924;-62
2022/05/30 15:05:55;;;;;;;;;;;23.20;87.90;;;;;;4871372;29;20311;-62
2022/05/30 15:08:23;;;;;;;;;;;23.20;88.20;;;;;;4855382;29;20277;-64
2022/05/30 15:10:51;;;;;;;;;;;23.20;88.50;;;;;;4853637;29;19932;-64
2022/05/30 15:13:18;;;;;;;;;;;23.20;88.90;;;;;;4841929;29;19936;-60
2022/05/30 15:15:45;;;;;;;;;;;23.10;89.20;;;;;;4844490;29;19964;-66
2022/05/30 15:18:14;;;;;;;;;;;23.10;89.60;;;;;;4844649;29;19932;-63
2022/05/30 15:20:42;;;;;;;;;;;23.00;89.80;;;;;;4860822;29;19935;-62
2022/05/30 15:23:09;;;;;;;;;;;23.10;89.90;;;;;;4848654;29;19964;-61
2022/05/30 15:25:36;;;;;;;;;;;23.00;89.90;;;;;;4850213;29;19954;-63
2022/05/30 15:28:04;;;;;;;;;;;23.00;90.00;;;;;;4850317;29;19932;-67
2022/05/30 15:30:31;;;;;;;;;;;22.90;90.00;;;;;;4822685;29;20396;-60